Hlavní strana
METAR-TAF:

METAR-TAF

Letiště :

Torsby, Švédsko

zeměpisná šířka: 60-09-17N, zeměpisná délka: 12-59-40E, výška: 120 m

Aktuální stav počasí

Zpráva byla vytvořena před 21 minutami, v 21:20 UTC
Jihojihovýchodní vítr 7 kt
Teplota 3°C
Vlhkost vzduchu 93%
Tlak 1000 hPa
Viditelnost: 6000 m
kouřmo

METAR: ESST 122120Z AUTO 16007KT 6000 BR OVC012/// 03/02 Q1000

Čas: 22:41 (21:41 UTC)


TAF: chybějící

Stav a předpovědi počasí z více než 4 000 letišť (zprávy METAR a TAF).

Červené a žluté tečky na mapě představují dostupné meteorologické stanice.

Když kurzor umístíte na tečku, zobrazí se název stanice.

Pak kliknutím zobrazíte stav a předpověď počasí.

Chcete-li změnit mapu, kliknutím na zelené tlačítko se znaménkem +mapu přiblížíte, kliknutím na zelené tlačítko se znaménkem – mapu oddálíte a kliknutím na zelené šipky přejdete na sousední mapy.


METAR-TAF: